Time;durP1;ratioP1;P1;durP2;ratioP2;P2;SDS_P1;SDS_P2;PMS_P1;PMS_P2;Temp;Humidity;BMP_temperature;BMP_pressure;BME280_temperature;BME280_humidity;BME280_pressure;Samples;Min_cycle;Max_cycle;Signal;HPM_P1;HPM_P2
2023/11/02 00:00:46;;;;;;;;;;;;;;;;;;1904772;28;7009;-65
2023/11/02 00:01:51;;;;;;;;;;;;;;;;;;1898864;28;7045;-66
2023/11/02 00:02:49;;;;;;;;;;;;;;;;;;1897085;28;7013;-65
2023/11/02 00:03:47;;;;;;;;;;;;;;;;;;1904992;28;7117;-65
2023/11/02 00:04:45;;;;;;;;;;;;;;;;;;1899223;28;7982;-66
2023/11/02 00:05:54;;;;;;;;;;;;;;;;;;1900817;28;7046;-65
2023/11/02 00:06:52;;;;;;;;;;;;;;;;;;1897571;28;7009;-65
2023/11/02 00:07:52;;;;;;;;;;;;;;;;;;1899602;28;7009;-65
2023/11/02 00:09:05;;;;;;;;;;;;;;;;;;1900402;28;7100;-64
2023/11/02 00:10:03;;;;;;;;;;;;;;;;;;1898892;28;7092;-65
2023/11/02 00:11:05;;;;;;;;;;;;;;;;;;1896382;28;7775;-65
2023/11/02 00:12:04;;;;;;;;;;;;;;;;;;1899266;28;7145;-65
2023/11/02 00:13:02;;;;;;;;;;;;;;;;;;1902717;28;8111;-64
2023/11/02 00:14:00;;;;;;;;;;;;;;;;;;1902309;28;8082;-63
2023/11/02 00:14:59;;;;;;;;;;;;;;;;;;1903532;28;7014;-63
2023/11/02 00:15:57;;;;;;;;;;;;;;;;;;1897210;28;7009;-63
2023/11/02 00:16:56;;;;;;;;;;;;;;;;;;1899971;28;8043;-67
2023/11/02 00:17:58;;;;;;;;;;;;;;;;;;1899384;28;8095;-64
2023/11/02 00:18:55;;;;;;;;;;;;;;;;;;1901590;28;7029;-66
2023/11/02 00:19:53;;;;;;;;;;;;;;;;;;1900733;28;7156;-65
2023/11/02 00:20:54;;;;;;;;;;;;;;;;;;1903978;28;7009;-64
2023/11/02 00:26:26;;;;;;;;;;;;;;;;;;1889133;28;6989;-67
2023/11/02 00:27:23;;;;;;;;;;;;;;;;;;1880801;28;7133;-63
2023/11/02 00:28:22;;;;;;;;;;;;;;;;;;1888330;28;7520;-65
2023/11/02 00:29:19;;;;;;;;;;;;;;;;;;1888520;28;7427;-64
2023/11/02 00:30:16;;;;;;;;;;;;;;;;;;1888947;28;8029;-66
2023/11/02 00:31:14;;;;;;;;;;;;;;;;;;1885263;28;7129;-63
2023/11/02 00:32:12;;;;;;;;;;;;;;;;;;1885602;28;7120;-66
2023/11/02 00:33:12;;;;;;;;;;;;;;;;;;1881381;28;8899;-67
2023/11/02 00:34:10;;;;;;;;;;;;;;;;;;1881478;28;7117;-64
2023/11/02 00:35:08;;;;;;;;;;;;;;;;;;1882131;28;7145;-66
2023/11/02 00:36:07;;;;;;;;;;;;;;;;;;1888400;28;7096;-65
2023/11/02 00:37:05;;;;;;;;;;;;;;;;;;1883000;28;7143;-67
2023/11/02 00:38:03;;;;;;;;;;;;;;;;;;1881932;28;7269;-66
2023/11/02 00:39:00;;;;;;;;;;;;;;;;;;1880283;28;7010;-66
2023/11/02 00:39:58;;;;;;;;;;;;;;;;;;1883760;28;7009;-64
2023/11/02 00:40:57;;;;;;;;;;;;;;;;;;1888258;28;7013;-63
2023/11/02 00:41:55;;;;;;;;;;;;;;;;;;1886094;28;7289;-66
2023/11/02 00:42:53;;;;;;;;;;;;;;;;;;1881388;28;7536;-63
2023/11/02 00:43:50;;;;;;;;;;;;;;;;;;1882654;28;8063;-66
2023/11/02 00:44:48;;;;;;;;;;;;;;;;;;1881774;28;7061;-66
2023/11/02 00:45:46;;;;;;;;;;;;;;;;;;1884027;28;7972;-66
2023/11/02 00:46:47;;;;;;;;;;;;;;;;;;1885080;28;7100;-63
2023/11/02 00:47:44;;;;;;;;;;;;;;;;;;1887806;28;7041;-66
2023/11/02 00:48:43;;;;;;;;;;;;;;;;;;1884459;28;7014;-66
2023/11/02 00:49:41;;;;;;;;;;;;;;;;;;1886128;28;7061;-66
2023/11/02 00:51:08;;;;;;;;;;;;;;;;;;1885825;28;7021;-64
2023/11/02 00:52:06;;;;;;;;;;;;;;;;;;1886359;28;7029;-66
2023/11/02 00:53:05;;;;;;;;;;;;;;;;;;1881569;28;7042;-65
2023/11/02 00:54:06;;;;;;;;;;;;;;;;;;1890805;28;7054;-64
2023/11/02 00:55:04;;;;;;;;;;;;;;;;;;1899393;28;7367;-64
2023/11/02 00:56:05;;;;;;;;;;;;;;;;;;1897575;28;7112;-66
2023/11/02 00:57:04;;;;;;;;;;;;;;;;;;1904615;28;8059;-66
2023/11/02 00:58:08;;;;;;;;;;;;;;;;;;1902683;28;7171;-66
2023/11/02 00:59:06;;;;;;;;;;;;;;;;;;1899430;28;7092;-66
2023/11/02 01:00:04;;;;;;;;;;;;;;;;;;1900550;28;7124;-66
2023/11/02 01:01:10;;;;;;;;;;;;;;;;;;1897566;28;7014;-65
2023/11/02 01:02:07;;;;;;;;;;;;;;;;;;1898934;28;8019;-66
2023/11/02 01:03:05;;;;;;;;;;;;;;;;;;1903133;28;8020;-67
2023/11/02 01:04:05;;;;;;;;;;;;;;;;;;1902336;28;8084;-66
2023/11/02 01:05:04;;;;;;;;;;;;;;;;;;1900202;28;7221;-66
2023/11/02 01:06:02;;;;;;;;;;;;;;;;;;1904555;28;7193;-65
2023/11/02 01:06:59;;;;;;;;;;;;;;;;;;1905797;28;7111;-65
2023/11/02 01:07:57;;;;;;;;;;;;;;;;;;1901210;28;7328;-66
2023/11/02 01:08:59;;;;;;;;;;;;;;;;;;1901724;28;7014;-66
2023/11/02 01:10:00;;;;;;;;;;;;;;;;;;1904060;28;8035;-66
2023/11/02 01:10:57;;;;;;;;;;;;;;;;;;1905006;28;7232;-65
2023/11/02 01:11:55;;;;;;;;;;;;;;;;;;1902871;28;7077;-66
2023/11/02 01:12:53;;;;;;;;;;;;;;;;;;1899923;28;7122;-65
2023/11/02 01:13:51;;;;;;;;;;;;;;;;;;1905028;28;7100;-66
2023/11/02 01:14:49;;;;;;;;;;;;;;;;;;1899977;28;7050;-66
2023/11/02 01:16:06;;;;;;;;;;;;;;;;;;1900512;28;7372;-67
2023/11/02 01:17:03;;;;;;;;;;;;;;;;;;1900095;28;7088;-66
2023/11/02 01:18:02;;;;;;;;;;;;;;;;;;1905936;28;7013;-63
2023/11/02 01:19:00;;;;;;;;;;;;;;;;;;1904094;28;7045;-65
2023/11/02 01:20:08;;;;;;;;;;;;;;;;;;1898307;28;7022;-65
2023/11/02 01:21:06;;;;;;;;;;;;;;;;;;1898017;28;7092;-65
2023/11/02 01:22:04;;;;;;;;;;;;;;;;;;1901742;28;7013;-66
2023/11/02 01:23:09;;;;;;;;;;;;;;;;;;1902717;28;7010;-65
2023/11/02 01:24:07;;;;;;;;;;;;;;;;;;1905312;28;7167;-66
2023/11/02 01:25:07;;;;;;;;;;;;;;;;;;1901847;28;7010;-65
2023/11/02 01:26:05;;;;;;;;;;;;;;;;;;1898702;28;7009;-66
2023/11/02 01:27:02;;;;;;;;;;;;;;;;;;1901610;28;8019;-65
2023/11/02 01:28:02;;;;;;;;;;;;;;;;;;1900289;28;7172;-65
2023/11/02 01:28:59;;;;;;;;;;;;;;;;;;1897103;28;7203;-65
2023/11/02 01:29:57;;;;;;;;;;;;;;;;;;1899105;28;7139;-65
2023/11/02 01:30:54;;;;;;;;;;;;;;;;;;1905440;28;7097;-65
2023/11/02 01:31:52;;;;;;;;;;;;;;;;;;1905196;28;7081;-65
2023/11/02 01:32:50;;;;;;;;;;;;;;;;;;1906013;28;7009;-65
2023/11/02 01:34:01;;;;;;;;;;;;;;;;;;1902166;28;7010;-66
2023/11/02 01:34:58;;;;;;;;;;;;;;;;;;1901483;28;7017;-65
2023/11/02 01:35:56;;;;;;;;;;;;;;;;;;1899408;28;8000;-65
2023/11/02 01:36:54;;;;;;;;;;;;;;;;;;1901941;28;7013;-65
2023/11/02 01:37:52;;;;;;;;;;;;;;;;;;1897713;28;7096;-65
2023/11/02 01:38:57;;;;;;;;;;;;;;;;;;1898405;28;7197;-65
2023/11/02 01:40:07;;;;;;;;;;;;;;;;;;1905104;28;7039;-65
2023/11/02 01:41:09;;;;;;;;;;;;;;;;;;1904426;28;7033;-65
2023/11/02 01:42:22;;;;;;;;;;;;;;;;;;1899153;28;7013;-65
2023/11/02 01:43:26;;;;;;;;;;;;;;;;;;1898262;28;7021;-65
2023/11/02 01:44:27;;;;;;;;;;;;;;;;;;1903343;28;7287;-65
2023/11/02 01:45:27;;;;;;;;;;;;;;;;;;1905486;28;7096;-66
2023/11/02 01:46:34;;;;;;;;;;;;;;;;;;1904295;28;7134;-65
2023/11/02 01:47:31;;;;;;;;;;;;;;;;;;1905586;28;7013;-64
2023/11/02 01:48:34;;;;;;;;;;;;;;;;;;1901423;28;7129;-65
2023/11/02 01:50:10;;;;;;;;;;;;;;;;;;1911801;28;7017;-66
2023/11/02 01:51:13;;;;;;;;;;;;;;;;;;1896454;28;7062;-65
2023/11/02 01:52:10;;;;;;;;;;;;;;;;;;1894021;28;8104;-65
2023/11/02 01:53:19;;;;;;;;;;;;;;;;;;1889433;28;7026;-65
2023/11/02 01:54:36;;;;;;;;;;;;;;;;;;1890524;28;7013;-65
2023/11/02 01:55:49;;;;;;;;;;;;;;;;;;1879652;28;9594;-65
2023/11/02 01:57:05;;;;;;;;;;;;;;;;;;1891067;28;7013;-65
2023/11/02 02:00:14;;;;;;;;;;;;;;;;;;1897257;28;7092;-65
2023/11/02 02:01:24;;;;;;;;;;;;;;;;;;1899725;28;7172;-66
2023/11/02 02:02:33;;;;;;;;;;;;;;;;;;1899864;28;7088;-65
2023/11/02 02:03:37;;;;;;;;;;;;;;;;;;1903289;28;9030;-65
2023/11/02 02:04:47;;;;;;;;;;;;;;;;;;1900285;28;7038;-65
2023/11/02 02:06:07;;;;;;;;;;;;;;;;;;1905059;28;8103;-65
2023/11/02 02:07:17;;;;;;;;;;;;;;;;;;1887443;28;7176;-65
2023/11/02 02:08:33;;;;;;;;;;;;;;;;;;1898840;28;7010;-65
2023/11/02 02:09:54;;;;;;;;;;;;;;;;;;1905616;28;8037;-65
2023/11/02 02:11:12;;;;;;;;;;;;;;;;;;1904076;28;9185;-65
2023/11/02 02:12:21;;;;;;;;;;;;;;;;;;1898783;28;7097;-65
2023/11/02 02:13:30;;;;;;;;;;;;;;;;;;1897690;28;7037;-66
2023/11/02 02:14:28;;;;;;;;;;;;;;;;;;1898109;28;7342;-65
2023/11/02 02:15:32;;;;;;;;;;;;;;;;;;1902698;28;7004;-65
2023/11/02 02:16:51;;;;;;;;;;;;;;;;;;1897602;28;8026;-64
2023/11/02 02:17:54;;;;;;;;;;;;;;;;;;1898329;28;7089;-65
2023/11/02 02:18:56;;;;;;;;;;;;;;;;;;1899095;28;8010;-65
2023/11/02 02:20:07;;;;;;;;;;;;;;;;;;1901421;28;7045;-66
2023/11/02 02:21:14;;;;;;;;;;;;;;;;;;1902227;28;7111;-66
2023/11/02 02:22:18;;;;;;;;;;;;;;;;;;1905659;28;7013;-65
2023/11/02 02:23:34;;;;;;;;;;;;;;;;;;1899221;28;7138;-65
2023/11/02 02:25:03;;;;;;;;;;;;;;;;;;1897685;28;7379;-66
2023/11/02 02:26:25;;;;;;;;;;;;;;;;;;1882204;28;7038;-66
2023/11/02 02:27:40;;;;;;;;;;;;;;;;;;1901241;28;7060;-65
2023/11/02 02:28:40;;;;;;;;;;;;;;;;;;1900106;28;7049;-65
2023/11/02 02:29:37;;;;;;;;;;;;;;;;;;1902501;28;7009;-65
2023/11/02 02:30:55;;;;;;;;;;;;;;;;;;1903609;28;8518;-65
2023/11/02 02:32:12;;;;;;;;;;;;;;;;;;1882720;28;7081;-65
2023/11/02 02:33:27;;;;;;;;;;;;;;;;;;1898546;28;7348;-65
2023/11/02 02:34:43;;;;;;;;;;;;;;;;;;1904633;28;7125;-66
2023/11/02 02:35:53;;;;;;;;;;;;;;;;;;1904198;28;7010;-65
2023/11/02 02:37:02;;;;;;;;;;;;;;;;;;1896925;28;7050;-65
2023/11/02 02:38:05;;;;;;;;;;;;;;;;;;1897103;28;7024;-64
2023/11/02 02:39:04;;;;;;;;;;;;;;;;;;1903550;28;7315;-65
2023/11/02 02:40:07;;;;;;;;;;;;;;;;;;1897809;28;7092;-65
2023/11/02 02:41:07;;;;;;;;;;;;;;;;;;1903684;28;7017;-66
2023/11/02 02:42:08;;;;;;;;;;;;;;;;;;1901469;28;8035;-65
2023/11/02 02:43:07;;;;;;;;;;;;;;;;;;1903287;28;7048;-65
2023/11/02 02:44:07;;;;;;;;;;;;;;;;;;1897594;28;7054;-65
2023/11/02 02:45:09;;;;;;;;;;;;;;;;;;1900891;28;8051;-65
2023/11/02 02:46:07;;;;;;;;;;;;;;;;;;1905108;28;7116;-65
2023/11/02 02:47:05;;;;;;;;;;;;;;;;;;1899474;28;7017;-65
2023/11/02 02:48:03;;;;;;;;;;;;;;;;;;1902669;28;9077;-65
2023/11/02 02:49:01;;;;;;;;;;;;;;;;;;1905020;28;7046;-65
2023/11/02 02:50:01;;;;;;;;;;;;;;;;;;1897401;28;8414;-65
2023/11/02 02:51:02;;;;;;;;;;;;;;;;;;1899069;28;7120;-65
2023/11/02 02:52:00;;;;;;;;;;;;;;;;;;1899596;28;7020;-65
2023/11/02 02:52:59;;;;;;;;;;;;;;;;;;1897566;28;7097;-65
2023/11/02 02:54:01;;;;;;;;;;;;;;;;;;1900539;28;7100;-65
2023/11/02 02:55:00;;;;;;;;;;;;;;;;;;1901899;28;7021;-66
2023/11/02 02:56:20;;;;;;;;;;;;;;;;;;1903821;28;7045;-65
2023/11/02 02:57:19;;;;;;;;;;;;;;;;;;1896809;28;7018;-65
2023/11/02 02:58:20;;;;;;;;;;;;;;;;;;1902595;28;7127;-65
2023/11/02 02:59:20;;;;;;;;;;;;;;;;;;1902985;28;8040;-65
2023/11/02 03:00:19;;;;;;;;;;;;;;;;;;1897430;28;7092;-65
2023/11/02 03:01:19;;;;;;;;;;;;;;;;;;1897800;28;7037;-65
2023/11/02 03:02:20;;;;;;;;;;;;;;;;;;1900119;28;7005;-66
2023/11/02 03:03:21;;;;;;;;;;;;;;;;;;1897705;28;7368;-66
2023/11/02 03:04:21;;;;;;;;;;;;;;;;;;1897614;28;7018;-65
2023/11/02 03:05:19;;;;;;;;;;;;;;;;;;1897692;28;7009;-66
2023/11/02 03:06:18;;;;;;;;;;;;;;;;;;1897551;28;7057;-65
2023/11/02 03:07:16;;;;;;;;;;;;;;;;;;1902160;28;8142;-66
2023/11/02 03:08:15;;;;;;;;;;;;;;;;;;1904689;28;7078;-64
2023/11/02 03:09:19;;;;;;;;;;;;;;;;;;1904520;28;7033;-65
2023/11/02 03:10:19;;;;;;;;;;;;;;;;;;1897963;28;8023;-65
2023/11/02 03:11:18;;;;;;;;;;;;;;;;;;1900582;28;8026;-65
2023/11/02 03:12:24;;;;;;;;;;;;;;;;;;1897835;28;7020;-65
2023/11/02 03:13:27;;;;;;;;;;;;;;;;;;1908430;28;7177;-65
2023/11/02 03:14:25;;;;;;;;;;;;;;;;;;1904147;28;7017;-65
2023/11/02 03:15:28;;;;;;;;;;;;;;;;;;1902078;28;8055;-65
2023/11/02 03:16:26;;;;;;;;;;;;;;;;;;1899124;28;7005;-65
2023/11/02 03:17:36;;;;;;;;;;;;;;;;;;1905491;28;8556;-65
2023/11/02 03:18:37;;;;;;;;;;;;;;;;;;1900659;28;7120;-65
2023/11/02 03:19:43;;;;;;;;;;;;;;;;;;1899004;28;7196;-65
2023/11/02 03:20:41;;;;;;;;;;;;;;;;;;1904887;28;7009;-65
2023/11/02 03:21:38;;;;;;;;;;;;;;;;;;1908114;28;8398;-65
2023/11/02 03:22:41;;;;;;;;;;;;;;;;;;1908703;28;7469;-65
2023/11/02 03:23:45;;;;;;;;;;;;;;;;;;1896820;28;7010;-65
2023/11/02 03:25:00;;;;;;;;;;;;;;;;;;1904567;28;7010;-65
2023/11/02 03:26:04;;;;;;;;;;;;;;;;;;1901999;28;7029;-65
2023/11/02 03:27:06;;;;;;;;;;;;;;;;;;1904742;28;7100;-66
2023/11/02 03:28:10;;;;;;;;;;;;;;;;;;1897516;28;7012;-65
2023/11/02 03:29:26;;;;;;;;;;;;;;;;;;1904445;28;7331;-65
2023/11/02 03:30:37;;;;;;;;;;;;;;;;;;1902568;28;7120;-66
2023/11/02 03:31:53;;;;;;;;;;;;;;;;;;1896878;28;7109;-65
2023/11/02 03:33:09;;;;;;;;;;;;;;;;;;1902520;28;7017;-65
2023/11/02 03:34:06;;;;;;;;;;;;;;;;;;1904730;28;7076;-65
2023/11/02 03:35:22;;;;;;;;;;;;;;;;;;1902934;28;7028;-65
2023/11/02 03:36:22;;;;;;;;;;;;;;;;;;1897180;28;7263;-65
2023/11/02 03:37:42;;;;;;;;;;;;;;;;;;1903702;28;8111;-65
2023/11/02 03:38:42;;;;;;;;;;;;;;;;;;1909353;28;7125;-65
2023/11/02 03:39:55;;;;;;;;;;;;;;;;;;1900066;28;7005;-65
2023/11/02 03:41:04;;;;;;;;;;;;;;;;;;1899659;28;7103;-65
2023/11/02 03:42:04;;;;;;;;;;;;;;;;;;1899550;28;7113;-66
2023/11/02 03:43:05;;;;;;;;;;;;;;;;;;1904510;28;8202;-65
2023/11/02 03:44:17;;;;;;;;;;;;;;;;;;1905276;28;7005;-65
2023/11/02 03:45:26;;;;;;;;;;;;;;;;;;1901238;28;7037;-66
2023/11/02 03:46:24;;;;;;;;;;;;;;;;;;1898011;28;7046;-65
2023/11/02 03:47:25;;;;;;;;;;;;;;;;;;1897583;28;7057;-65
2023/11/02 03:48:31;;;;;;;;;;;;;;;;;;1897591;28;7984;-65
2023/11/02 03:49:36;;;;;;;;;;;;;;;;;;1897165;28;7029;-65
2023/11/02 03:50:42;;;;;;;;;;;;;;;;;;1896934;28;7093;-65
2023/11/02 03:51:49;;;;;;;;;;;;;;;;;;1904801;28;7013;-65
2023/11/02 03:52:46;;;;;;;;;;;;;;;;;;1904286;28;7017;-66
2023/11/02 03:54:02;;;;;;;;;;;;;;;;;;1904988;28;8038;-65
2023/11/02 03:55:05;;;;;;;;;;;;;;;;;;1904608;28;7013;-65
2023/11/02 03:56:20;;;;;;;;;;;;;;;;;;1905222;28;8109;-65
2023/11/02 03:57:31;;;;;;;;;;;;;;;;;;1905110;28;7010;-65
2023/11/02 03:58:45;;;;;;;;;;;;;;;;;;1910830;28;7345;-65
2023/11/02 04:00:04;;;;;;;;;;;;;;;;;;1909464;28;7013;-65
2023/11/02 04:01:04;;;;;;;;;;;;;;;;;;1900244;28;7013;-66
2023/11/02 04:02:08;;;;;;;;;;;;;;;;;;1896308;28;8111;-65
2023/11/02 04:03:10;;;;;;;;;;;;;;;;;;1903469;28;7009;-65
2023/11/02 04:04:09;;;;;;;;;;;;;;;;;;1904618;28;8112;-65
2023/11/02 04:05:06;;;;;;;;;;;;;;;;;;1911430;28;7148;-65
2023/11/02 04:06:10;;;;;;;;;;;;;;;;;;1910840;28;7021;-65
2023/11/02 04:07:22;;;;;;;;;;;;;;;;;;1904514;28;7025;-65
2023/11/02 04:08:19;;;;;;;;;;;;;;;;;;1904331;28;7112;-66
2023/11/02 04:09:21;;;;;;;;;;;;;;;;;;1902011;28;8005;-66
2023/11/02 04:10:23;;;;;;;;;;;;;;;;;;1897689;28;8093;-66
2023/11/02 04:11:23;;;;;;;;;;;;;;;;;;1897476;28;7021;-64
2023/11/02 04:12:21;;;;;;;;;;;;;;;;;;1898066;28;7130;-65
2023/11/02 04:13:22;;;;;;;;;;;;;;;;;;1898882;28;7017;-65
2023/11/02 04:14:24;;;;;;;;;;;;;;;;;;1898326;28;8059;-65
2023/11/02 04:15:22;;;;;;;;;;;;;;;;;;1898411;28;8061;-65
2023/11/02 04:16:19;;;;;;;;;;;;;;;;;;1904365;28;7025;-66
2023/11/02 04:17:18;;;;;;;;;;;;;;;;;;1904368;28;7022;-65
2023/11/02 04:18:15;;;;;;;;;;;;;;;;;;1904675;28;7053;-66
2023/11/02 04:19:13;;;;;;;;;;;;;;;;;;1905660;28;7859;-65
2023/11/02 04:20:11;;;;;;;;;;;;;;;;;;1904822;28;7021;-65
2023/11/02 04:21:10;;;;;;;;;;;;;;;;;;1904893;28;7100;-65
2023/11/02 04:22:07;;;;;;;;;;;;;;;;;;1904378;28;7158;-65
2023/11/02 04:23:05;;;;;;;;;;;;;;;;;;1904126;28;7013;-65
2023/11/02 04:24:02;;;;;;;;;;;;;;;;;;1904743;28;7049;-65
2023/11/02 04:25:00;;;;;;;;;;;;;;;;;;1904454;28;7013;-65
2023/11/02 04:25:57;;;;;;;;;;;;;;;;;;1905857;28;7046;-65
2023/11/02 04:26:56;;;;;;;;;;;;;;;;;;1904733;28;8034;-65
2023/11/02 04:27:54;;;;;;;;;;;;;;;;;;1904855;28;7028;-65
2023/11/02 04:28:52;;;;;;;;;;;;;;;;;;1903828;28;7196;-66
2023/11/02 04:29:49;;;;;;;;;;;;;;;;;;1902485;28;7013;-66
2023/11/02 04:30:47;;;;;;;;;;;;;;;;;;1904112;28;8038;-65
2023/11/02 04:31:44;;;;;;;;;;;;;;;;;;1904703;28;7120;-66
2023/11/02 04:32:42;;;;;;;;;;;;;;;;;;1905339;28;8303;-65
2023/11/02 04:33:42;;;;;;;;;;;;;;;;;;1903403;28;7013;-64
2023/11/02 04:34:40;;;;;;;;;;;;;;;;;;1896724;28;7092;-65
2023/11/02 04:35:37;;;;;;;;;;;;;;;;;;1900815;28;7141;-65
2023/11/02 04:36:35;;;;;;;;;;;;;;;;;;1904997;28;7013;-65
2023/11/02 04:37:32;;;;;;;;;;;;;;;;;;1898509;28;7017;-66
2023/11/02 04:38:30;;;;;;;;;;;;;;;;;;1900045;28;7149;-65
2023/11/02 04:39:27;;;;;;;;;;;;;;;;;;1907044;28;8067;-65
2023/11/02 04:40:25;;;;;;;;;;;;;;;;;;1906723;28;7021;-65
2023/11/02 04:41:23;;;;;;;;;;;;;;;;;;1905799;28;7359;-65
2023/11/02 04:42:22;;;;;;;;;;;;;;;;;;1904049;28;7104;-65
2023/11/02 04:43:20;;;;;;;;;;;;;;;;;;1898288;28;8008;-65
2023/11/02 04:44:17;;;;;;;;;;;;;;;;;;1905867;28;7319;-65
2023/11/02 04:45:15;;;;;;;;;;;;;;;;;;1904886;28;7308;-65
2023/11/02 04:46:12;;;;;;;;;;;;;;;;;;1904931;28;7052;-65
2023/11/02 04:47:10;;;;;;;;;;;;;;;;;;1911640;28;7185;-65
2023/11/02 04:48:08;;;;;;;;;;;;;;;;;;1906666;28;7092;-65
2023/11/02 04:49:05;;;;;;;;;;;;;;;;;;1905983;28;8052;-66
2023/11/02 04:50:03;;;;;;;;;;;;;;;;;;1899638;28;7303;-65
2023/11/02 04:51:00;;;;;;;;;;;;;;;;;;1903608;28;7308;-65
2023/11/02 04:51:59;;;;;;;;;;;;;;;;;;1897966;28;7046;-65
2023/11/02 04:52:57;;;;;;;;;;;;;;;;;;1898541;28;7419;-65
2023/11/02 04:53:56;;;;;;;;;;;;;;;;;;1898710;28;7009;-65
2023/11/02 04:54:54;;;;;;;;;;;;;;;;;;1899028;28;7104;-66
2023/11/02 04:55:52;;;;;;;;;;;;;;;;;;1898461;28;8016;-64
2023/11/02 04:56:49;;;;;;;;;;;;;;;;;;1905551;28;7029;-65
2023/11/02 04:57:47;;;;;;;;;;;;;;;;;;1905383;28;7017;-65
2023/11/02 04:58:44;;;;;;;;;;;;;;;;;;1900526;28;7137;-65
2023/11/02 04:59:44;;;;;;;;;;;;;;;;;;1902115;28;7092;-65
2023/11/02 05:00:42;;;;;;;;;;;;;;;;;;1903856;28;7143;-65
2023/11/02 05:01:40;;;;;;;;;;;;;;;;;;1899442;28;7155;-65
2023/11/02 05:02:37;;;;;;;;;;;;;;;;;;1898949;28;7573;-65
2023/11/02 05:03:34;;;;;;;;;;;;;;;;;;1898723;28;7351;-66
2023/11/02 05:04:32;;;;;;;;;;;;;;;;;;1898876;28;7009;-65
2023/11/02 05:05:29;;;;;;;;;;;;;;;;;;1900119;28;7013;-65
2023/11/02 05:06:27;;;;;;;;;;;;;;;;;;1899618;28;7104;-66
2023/11/02 05:07:24;;;;;;;;;;;;;;;;;;1901131;28;7059;-65
2023/11/02 05:08:22;;;;;;;;;;;;;;;;;;1898709;28;8043;-65
2023/11/02 05:09:19;;;;;;;;;;;;;;;;;;1903701;28;7013;-67
2023/11/02 05:10:17;;;;;;;;;;;;;;;;;;1904015;28;7096;-65
2023/11/02 05:11:14;;;;;;;;;;;;;;;;;;1906313;28;7096;-65
2023/11/02 05:12:12;;;;;;;;;;;;;;;;;;1902195;28;7246;-65
2023/11/02 05:13:09;;;;;;;;;;;;;;;;;;1897940;28;8882;-65
2023/11/02 05:14:07;;;;;;;;;;;;;;;;;;1899900;28;7009;-65
2023/11/02 05:15:04;;;;;;;;;;;;;;;;;;1903399;28;7154;-65
2023/11/02 05:16:02;;;;;;;;;;;;;;;;;;1906236;28;7018;-65
2023/11/02 05:16:59;;;;;;;;;;;;;;;;;;1897225;28;7256;-65
2023/11/02 05:17:56;;;;;;;;;;;;;;;;;;1897455;28;7014;-65
2023/11/02 05:18:54;;;;;;;;;;;;;;;;;;1898843;28;7025;-65
2023/11/02 05:19:51;;;;;;;;;;;;;;;;;;1898994;28;7312;-65
2023/11/02 05:20:56;;;;;;;;;;;;;;;;;;1900605;28;7013;-65
2023/11/02 05:21:54;;;;;;;;;;;;;;;;;;1899639;28;7049;-65
2023/11/02 05:22:52;;;;;;;;;;;;;;;;;;1904168;28;7014;-66
2023/11/02 05:23:49;;;;;;;;;;;;;;;;;;1905290;28;8052;-65
2023/11/02 05:24:46;;;;;;;;;;;;;;;;;;1902509;28;7013;-65
2023/11/02 05:25:44;;;;;;;;;;;;;;;;;;1905841;28;7009;-65
2023/11/02 05:26:41;;;;;;;;;;;;;;;;;;1905976;28;7013;-65
2023/11/02 05:27:38;;;;;;;;;;;;;;;;;;1906760;28;7088;-65
2023/11/02 05:28:36;;;;;;;;;;;;;;;;;;1900373;28;7423;-65
2023/11/02 05:29:34;;;;;;;;;;;;;;;;;;1897635;28;7017;-65
2023/11/02 05:30:33;;;;;;;;;;;;;;;;;;1901687;28;7156;-65
2023/11/02 05:31:30;;;;;;;;;;;;;;;;;;1901733;28;8014;-65
2023/11/02 05:32:28;;;;;;;;;;;;;;;;;;1906340;28;7364;-65
2023/11/02 05:33:26;;;;;;;;;;;;;;;;;;1906406;28;8010;-65
2023/11/02 05:34:23;;;;;;;;;;;;;;;;;;1904033;28;7092;-65
2023/11/02 05:35:21;;;;;;;;;;;;;;;;;;1902915;28;8123;-65
2023/11/02 05:36:25;;;;;;;;;;;;;;;;;;1906021;28;7016;-65
2023/11/02 05:37:22;;;;;;;;;;;;;;;;;;1899791;28;7014;-65
2023/11/02 05:38:20;;;;;;;;;;;;;;;;;;1898714;28;7101;-66
2023/11/02 05:39:17;;;;;;;;;;;;;;;;;;1897828;28;7014;-66
2023/11/02 05:40:14;;;;;;;;;;;;;;;;;;1898733;28;7013;-65
2023/11/02 05:41:12;;;;;;;;;;;;;;;;;;1898426;28;7062;-65
2023/11/02 05:42:09;;;;;;;;;;;;;;;;;;1903001;28;7081;-65
2023/11/02 05:43:08;;;;;;;;;;;;;;;;;;1899031;28;7093;-65
2023/11/02 05:44:05;;;;;;;;;;;;;;;;;;1898407;28;7013;-66
2023/11/02 05:45:03;;;;;;;;;;;;;;;;;;1898561;28;7340;-65
2023/11/02 05:46:01;;;;;;;;;;;;;;;;;;1905173;28;7010;-65
2023/11/02 05:46:58;;;;;;;;;;;;;;;;;;1905077;28;8004;-65
2023/11/02 05:47:56;;;;;;;;;;;;;;;;;;1903720;28;7097;-66
2023/11/02 05:48:53;;;;;;;;;;;;;;;;;;1899284;28;8074;-65
2023/11/02 05:49:51;;;;;;;;;;;;;;;;;;1898845;28;7013;-65
2023/11/02 05:50:49;;;;;;;;;;;;;;;;;;1898746;28;7096;-66
2023/11/02 05:51:47;;;;;;;;;;;;;;;;;;1901836;28;7017;-66
2023/11/02 05:52:44;;;;;;;;;;;;;;;;;;1898771;28;8039;-65
2023/11/02 05:53:42;;;;;;;;;;;;;;;;;;1900108;28;7109;-65
2023/11/02 05:54:39;;;;;;;;;;;;;;;;;;1905616;28;7009;-65
2023/11/02 05:55:37;;;;;;;;;;;;;;;;;;1906522;28;7359;-65
2023/11/02 05:56:34;;;;;;;;;;;;;;;;;;1900609;28;7046;-65
2023/11/02 05:57:33;;;;;;;;;;;;;;;;;;1898573;28;7010;-65
2023/11/02 05:58:31;;;;;;;;;;;;;;;;;;1897978;28;7014;-65
2023/11/02 05:59:28;;;;;;;;;;;;;;;;;;1898203;28;8032;-65
2023/11/02 06:00:26;;;;;;;;;;;;;;;;;;1904605;28;7105;-65
2023/11/02 06:01:27;;;;;;;;;;;;;;;;;;1904338;28;9085;-65
2023/11/02 06:02:24;;;;;;;;;;;;;;;;;;1900613;28;7005;-65
2023/11/02 06:03:21;;;;;;;;;;;;;;;;;;1904266;28;7010;-66
2023/11/02 06:04:19;;;;;;;;;;;;;;;;;;1905630;28;7013;-65
2023/11/02 06:05:16;;;;;;;;;;;;;;;;;;1910444;28;7225;-64
2023/11/02 06:06:14;;;;;;;;;;;;;;;;;;1908429;28;7049;-66
2023/11/02 06:07:11;;;;;;;;;;;;;;;;;;1904815;28;7009;-65
2023/11/02 06:08:09;;;;;;;;;;;;;;;;;;1896338;28;7025;-65
2023/11/02 06:09:07;;;;;;;;;;;;;;;;;;1898371;28;7930;-65
2023/11/02 06:10:05;;;;;;;;;;;;;;;;;;1897888;28;8011;-66
2023/11/02 06:11:03;;;;;;;;;;;;;;;;;;1897791;28;7045;-65
2023/11/02 06:12:01;;;;;;;;;;;;;;;;;;1898572;28;7009;-65
2023/11/02 06:12:58;;;;;;;;;;;;;;;;;;1904763;28;7148;-65
2023/11/02 06:13:57;;;;;;;;;;;;;;;;;;1898713;28;8094;-65
2023/11/02 06:14:56;;;;;;;;;;;;;;;;;;1904693;28;8042;-65
2023/11/02 06:15:53;;;;;;;;;;;;;;;;;;1905987;28;8019;-65
2023/11/02 06:16:51;;;;;;;;;;;;;;;;;;1905964;28;7116;-65
2023/11/02 06:17:48;;;;;;;;;;;;;;;;;;1905897;28;7013;-65
2023/11/02 06:18:46;;;;;;;;;;;;;;;;;;1900092;28;7041;-65
2023/11/02 06:19:43;;;;;;;;;;;;;;;;;;1897854;28;7046;-65
2023/11/02 06:20:41;;;;;;;;;;;;;;;;;;1899915;28;7088;-65
2023/11/02 06:21:39;;;;;;;;;;;;;;;;;;1898273;28;7009;-64
2023/11/02 06:22:36;;;;;;;;;;;;;;;;;;1898497;28;7093;-65
2023/11/02 06:23:34;;;;;;;;;;;;;;;;;;1900709;28;7037;-65
2023/11/02 06:24:31;;;;;;;;;;;;;;;;;;1901668;28;7010;-64
2023/11/02 06:25:28;;;;;;;;;;;;;;;;;;1897962;28;7042;-65
2023/11/02 06:26:26;;;;;;;;;;;;;;;;;;1897954;28;7128;-64
2023/11/02 06:27:23;;;;;;;;;;;;;;;;;;1898029;28;7009;-64
2023/11/02 06:28:21;;;;;;;;;;;;;;;;;;1897689;28;8010;-65
2023/11/02 06:29:18;;;;;;;;;;;;;;;;;;1898511;28;7134;-66
2023/11/02 06:30:16;;;;;;;;;;;;;;;;;;1898222;28;7017;-64
2023/11/02 06:31:13;;;;;;;;;;;;;;;;;;1898197;28;7050;-65
2023/11/02 06:32:11;;;;;;;;;;;;;;;;;;1902737;28;7041;-65
2023/11/02 06:33:09;;;;;;;;;;;;;;;;;;1905170;28;7013;-65
2023/11/02 06:34:06;;;;;;;;;;;;;;;;;;1905520;28;7073;-65
2023/11/02 06:35:04;;;;;;;;;;;;;;;;;;1897747;28;7467;-65
2023/11/02 06:36:02;;;;;;;;;;;;;;;;;;1897900;28;7133;-64
2023/11/02 06:37:00;;;;;;;;;;;;;;;;;;1899526;28;7033;-65
2023/11/02 06:37:58;;;;;;;;;;;;;;;;;;1899552;28;7148;-65
2023/11/02 06:38:57;;;;;;;;;;;;;;;;;;1902067;28;7144;-65
2023/11/02 06:39:54;;;;;;;;;;;;;;;;;;1896744;28;7013;-64
2023/11/02 06:40:52;;;;;;;;;;;;;;;;;;1897981;28;8007;-65
2023/11/02 06:41:50;;;;;;;;;;;;;;;;;;1899063;28;8041;-65
2023/11/02 06:42:49;;;;;;;;;;;;;;;;;;1901277;28;7013;-65
2023/11/02 06:43:49;;;;;;;;;;;;;;;;;;1905604;28;7017;-65
2023/11/02 06:44:46;;;;;;;;;;;;;;;;;;1900075;28;7006;-65
2023/11/02 06:45:44;;;;;;;;;;;;;;;;;;1901376;28;8047;-65
2023/11/02 06:46:42;;;;;;;;;;;;;;;;;;1897966;28;7010;-65
2023/11/02 06:47:39;;;;;;;;;;;;;;;;;;1902429;28;7010;-64
2023/11/02 06:48:37;;;;;;;;;;;;;;;;;;1901523;28;7977;-64
2023/11/02 06:49:35;;;;;;;;;;;;;;;;;;1902806;28;7120;-65
2023/11/02 06:50:33;;;;;;;;;;;;;;;;;;1897073;28;7124;-65
2023/11/02 06:51:30;;;;;;;;;;;;;;;;;;1898303;28;7025;-65
2023/11/02 06:52:28;;;;;;;;;;;;;;;;;;1902332;28;7160;-64
2023/11/02 06:53:25;;;;;;;;;;;;;;;;;;1905754;28;7017;-65
2023/11/02 06:54:23;;;;;;;;;;;;;;;;;;1901825;28;7123;-65
2023/11/02 06:55:20;;;;;;;;;;;;;;;;;;1903009;28;7017;-65
2023/11/02 06:56:19;;;;;;;;;;;;;;;;;;1899602;28;7050;-65
2023/11/02 06:57:17;;;;;;;;;;;;;;;;;;1900828;28;7133;-65
2023/11/02 06:58:15;;;;;;;;;;;;;;;;;;1898248;28;7075;-65
2023/11/02 06:59:12;;;;;;;;;;;;;;;;;;1897611;28;7123;-65
2023/11/02 07:00:13;;;;;;;;;;;;;;;;;;1904659;28;8011;-65
2023/11/02 07:01:12;;;;;;;;;;;;;;;;;;1898579;28;7101;-65
2023/11/02 07:02:09;;;;;;;;;;;;;;;;;;1898398;28;7046;-65
2023/11/02 07:03:06;;;;;;;;;;;;;;;;;;1897699;28;7014;-65
2023/11/02 07:04:04;;;;;;;;;;;;;;;;;;1901197;28;7013;-65
2023/11/02 07:05:03;;;;;;;;;;;;;;;;;;1897978;28;7010;-64
2023/11/02 07:06:00;;;;;;;;;;;;;;;;;;1897738;28;7089;-65
2023/11/02 07:06:58;;;;;;;;;;;;;;;;;;1904203;28;7021;-65
2023/11/02 07:07:56;;;;;;;;;;;;;;;;;;1903477;28;7077;-65
2023/11/02 07:08:53;;;;;;;;;;;;;;;;;;1898073;28;7009;-65
2023/11/02 07:09:51;;;;;;;;;;;;;;;;;;1911741;28;8166;-65